Time;durP1;ratioP1;P1;durP2;ratioP2;P2;SDS_P1;SDS_P2;PMS_P1;PMS_P2;Temp;Humidity;BMP_temperature;BMP_pressure;BME280_temperature;BME280_humidity;BME280_pressure;Samples;Min_cycle;Max_cycle;Signal;HPM_P1;HPM_P2
2021/08/03 00:00:00;;;;;;;3.80;1.52;;;;;;;20.34;60.05;99954.53;4916603;29;20502;-88
2021/08/03 00:02:27;;;;;;;3.00;2.00;;;;;;;20.37;59.51;99950.78;4916662;29;20048;-88
2021/08/03 00:04:57;;;;;;;2.25;1.95;;;;;;;20.47;58.49;99943.66;4918332;29;20411;-88
2021/08/03 00:07:27;;;;;;;2.90;1.80;;;;;;;20.47;58.06;99933.06;4917960;29;20054;-88
2021/08/03 00:09:55;;;;;;;2.95;1.92;;;;;;;20.28;58.89;99939.25;4917990;29;20384;-88
2021/08/03 00:12:23;;;;;;;5.03;1.77;;;;;;;20.20;58.91;99931.22;4917634;29;20043;-88
2021/08/03 00:14:53;;;;;;;4.25;2.50;;;;;;;20.24;58.88;99937.91;4918060;29;20099;-87
2021/08/03 00:17:25;;;;;;;2.00;1.80;;;;;;;19.95;61.10;99932.69;4917375;29;20548;-87
2021/08/03 00:19:53;;;;;;;2.15;1.95;;;;;;;19.67;62.12;99923.88;4903359;29;20036;-86
2021/08/03 00:22:23;;;;;;;4.15;2.75;;;;;;;19.71;61.73;99927.03;4917979;29;20043;-87
2021/08/03 00:24:51;;;;;;;5.28;2.40;;;;;;;19.46;63.14;99925.84;4917485;29;20151;-87
2021/08/03 00:27:18;;;;;;;5.18;2.20;;;;;;;19.51;62.87;99928.88;4917625;29;20092;-87
2021/08/03 00:29:45;;;;;;;6.60;2.30;;;;;;;19.80;61.62;99923.56;4917146;29;20092;-87
2021/08/03 00:32:12;;;;;;;5.63;2.05;;;;;;;19.79;60.86;99920.06;4917491;29;20040;-87
2021/08/03 00:34:40;;;;;;;2.83;2.10;;;;;;;19.86;60.26;99922.97;4916955;29;20052;-86
2021/08/03 00:37:08;;;;;;;2.40;1.70;;;;;;;19.78;60.67;99915.78;4916094;29;20047;-86
2021/08/03 00:39:37;;;;;;;4.40;2.40;;;;;;;19.95;59.58;99921.28;4915367;29;20115;-86
2021/08/03 00:42:07;;;;;;;3.58;2.47;;;;;;;20.12;58.68;99928.47;4917523;29;20127;-86
2021/08/03 00:44:49;;;;;;;4.30;2.03;;;;;;;19.92;59.87;99925.06;4914856;29;20052;-87
2021/08/03 00:47:22;;;;;;;5.95;3.10;;;;;;;20.02;58.74;99933.78;4912945;29;20155;-87
2021/08/03 00:49:54;;;;;;;3.88;2.08;;;;;;;20.07;58.30;99930.69;4915621;29;20048;-85
2021/08/03 00:52:21;;;;;;;4.88;2.28;;;;;;;20.15;58.98;99931.66;4917054;29;20500;-85
2021/08/03 00:54:51;;;;;;;2.83;1.65;;;;;;;19.58;61.24;99943.19;4917516;29;20044;-85
2021/08/03 00:57:18;;;;;;;3.00;2.13;;;;;;;19.95;59.31;99929.22;4915387;29;20048;-84
2021/08/03 00:59:45;;;;;;;3.53;2.30;;;;;;;20.26;61.25;99930.63;4917580;29;20044;-85
2021/08/03 01:02:15;;;;;;;6.07;2.45;;;;;;;20.00;62.60;99926.97;4914939;29;20131;-85
2021/08/03 01:04:43;;;;;;;14.27;3.35;;;;;;;19.75;64.20;99941.66;4915713;29;20497;-85
2021/08/03 01:07:16;;;;;;;7.40;3.00;;;;;;;19.63;65.47;99933.06;4915058;29;20058;-85
2021/08/03 01:10:05;;;;;;;4.32;2.92;;;;;;;19.67;64.28;99934.44;4915622;29;20091;-85
2021/08/03 01:12:51;;;;;;;9.32;4.50;;;;;;;19.94;62.37;99930.22;4907067;29;20638;-87
2021/08/03 01:15:50;;;;;;;2.50;1.80;;;;;;;20.12;57.81;99931.09;4916730;29;20075;-88
2021/08/03 01:18:29;;;;;;;3.17;2.45;;;;;;;20.95;58.64;99931.09;4881635;29;20060;-88
2021/08/03 01:21:22;;;;;;;5.40;2.80;;;;;;;20.01;63.45;99936.56;4916682;29;20091;-88
2021/08/03 01:24:09;;;;;;;7.53;3.47;;;;;;;19.97;64.89;99945.78;4915175;29;20199;-87
2021/08/03 01:27:00;;;;;;;5.55;3.45;;;;;;;19.84;63.86;99941.66;4916727;29;20400;-88
2021/08/03 01:29:28;;;;;;;9.65;3.38;;;;;;;20.06;62.56;99943.09;4930963;29;20048;-87
2021/08/03 01:32:03;;;;;;;3.38;2.05;;;;;;;19.77;60.65;99945.84;4916784;29;20145;-88
2021/08/03 01:34:33;;;;;;;5.20;2.33;;;;;;;19.54;59.71;99944.44;4916374;29;20119;-88
2021/08/03 01:37:04;;;;;;;6.40;2.47;;;;;;;19.55;60.97;99943.50;4916553;29;20032;-88
2021/08/03 01:39:36;;;;;;;2.83;1.98;;;;;;;19.40;61.62;99937.81;4916310;29;20453;-87
2021/08/03 01:42:07;;;;;;;5.60;2.83;;;;;;;19.34;62.31;99941.84;4915317;29;20117;-88
2021/08/03 01:44:36;;;;;;;8.60;2.60;;;;;;;19.25;62.99;99944.50;4914454;29;20076;-89
2021/08/03 01:47:07;;;;;;;8.13;3.03;;;;;;;19.46;63.73;99937.25;4915205;29;20058;-88
2021/08/03 01:49:40;;;;;;;8.35;3.67;;;;;;;19.25;64.28;99947.13;4914827;29;20464;-88
2021/08/03 01:52:14;;;;;;;24.15;2.50;;;;;;;19.09;64.78;99937.13;4914900;29;20412;-87
2021/08/03 01:54:45;;;;;;;4.45;2.45;;;;;;;19.10;64.74;99936.13;4915279;29;20107;-88
2021/08/03 01:57:15;;;;;;;6.63;2.33;;;;;;;18.87;64.77;99927.66;4914577;29;20044;-87
2021/08/03 01:59:45;;;;;;;8.10;1.88;;;;;;;18.88;63.21;99925.84;4916463;29;20044;-88
2021/08/03 02:02:19;;;;;;;5.57;2.50;;;;;;;18.95;62.08;99916.38;4913770;29;20140;-87
2021/08/03 02:04:57;;;;;;;3.20;2.28;;;;;;;18.80;62.00;99908.88;4914906;29;20499;-88
2021/08/03 02:07:27;;;;;;;4.00;2.17;;;;;;;18.86;61.57;99912.78;4914324;29;20492;-86
2021/08/03 02:09:55;;;;;;;2.25;1.83;;;;;;;18.90;60.62;99908.03;4916359;29;20067;-86
2021/08/03 02:12:24;;;;;;;2.33;1.70;;;;;;;19.04;59.51;99916.41;4914496;29;20048;-86
2021/08/03 02:14:51;;;;;;;2.55;2.20;;;;;;;19.21;58.64;99912.22;4914898;29;20131;-86
2021/08/03 02:17:26;;;;;;;2.88;1.55;;;;;;;19.16;58.43;99909.16;4914582;29;20467;-86
2021/08/03 02:20:04;;;;;;;4.40;1.95;;;;;;;18.96;59.35;99910.13;4946812;29;20507;-85
2021/08/03 02:22:33;;;;;;;4.07;1.52;;;;;;;18.82;60.11;99911.38;4930468;29;20048;-84
2021/08/03 02:25:12;;;;;;;8.15;2.72;;;;;;;18.77;60.39;99909.16;4915936;29;20479;-84
2021/08/03 02:27:39;;;;;;;3.58;1.60;;;;;;;18.71;60.51;99906.22;4930553;29;20447;-87
2021/08/03 02:30:09;;;;;;;4.22;1.83;;;;;;;18.87;60.21;99897.78;4914444;29;20507;-87
2021/08/03 02:32:55;;;;;;;1.95;1.73;;;;;;;19.08;59.64;99896.66;4914698;29;20045;-87
2021/08/03 02:35:27;;;;;;;3.95;2.28;;;;;;;18.94;60.20;99898.88;4915700;29;20052;-88
2021/08/03 02:38:00;;;;;;;2.65;1.83;;;;;;;18.75;61.04;99900.53;4916185;29;20052;-87
2021/08/03 02:40:27;;;;;;;3.10;2.00;;;;;;;18.62;61.08;99905.19;4914633;29;20052;-86
2021/08/03 02:43:02;;;;;;;2.35;2.15;;;;;;;19.10;62.66;99920.28;4914832;29;20068;-87
2021/08/03 02:45:30;;;;;;;8.38;2.95;;;;;;;18.81;64.88;99910.56;4915384;29;20044;-88
2021/08/03 02:48:09;;;;;;;13.13;3.63;;;;;;;18.58;65.82;99915.19;4914590;29;20459;-85
2021/08/03 02:50:39;;;;;;;6.32;2.80;;;;;;;18.59;64.87;99908.13;4915571;29;20630;-85
2021/08/03 02:53:13;;;;;;;8.23;2.88;;;;;;;18.86;64.39;99904.88;4914625;29;20054;-85
2021/08/03 02:56:03;;;;;;;3.65;2.00;;;;;;;18.71;63.58;99907.06;4915588;29;20080;-89
2021/08/03 02:58:44;;;;;;;8.15;4.68;;;;;;;19.36;64.88;99910.81;4916421;29;20404;-90
2021/08/03 03:01:13;;;;;;;8.82;5.65;;;;;;;19.77;64.14;99911.47;4915213;29;20052;-92
2021/08/03 03:03:45;;;;;;;8.00;6.75;;;;;;;19.62;65.51;99911.06;4931280;29;20456;-91
2021/08/03 03:06:17;;;;;;;14.40;7.93;;;;;;;18.85;68.76;99916.38;4914602;29;20055;-88
2021/08/03 03:08:47;;;;;;;8.85;7.55;;;;;;;18.88;68.97;99917.91;4916876;29;20063;-88
2021/08/03 03:11:17;;;;;;;16.25;7.40;;;;;;;18.70;69.50;99928.34;4917777;29;20139;-88
2021/08/03 03:13:51;;;;;;;9.50;7.28;;;;;;;18.78;68.99;99926.66;4899099;29;20136;-89
2021/08/03 03:16:22;;;;;;;7.22;5.88;;;;;;;18.35;68.92;99931.38;4898922;29;20061;-88
2021/08/03 03:18:51;;;;;;;9.65;5.35;;;;;;;18.17;68.02;99924.13;4919129;29;20123;-88
2021/08/03 03:21:21;;;;;;;6.75;4.32;;;;;;;18.21;67.23;99927.31;4918977;29;20147;-88
2021/08/03 03:23:51;;;;;;;7.03;3.83;;;;;;;18.41;64.85;99928.22;4917426;29;20448;-88
2021/08/03 03:26:23;;;;;;;4.35;3.15;;;;;;;18.43;64.62;99935.03;4918647;29;20555;-85
2021/08/03 03:28:53;;;;;;;3.50;2.80;;;;;;;18.34;64.25;99930.56;4918631;29;20389;-91
2021/08/03 03:31:25;;;;;;;5.40;2.85;;;;;;;18.00;64.75;99940.53;4917409;29;20041;-92
2021/08/03 03:33:55;;;;;;;4.90;2.60;;;;;;;18.19;64.03;99940.63;4917273;29;20082;-94
2021/08/03 03:36:25;;;;;;;6.15;2.58;;;;;;;18.18;63.52;99940.78;4918896;29;20044;-88
2021/08/03 03:38:54;;;;;;;3.30;2.47;;;;;;;18.22;63.24;99939.56;4917202;29;20056;-86
2021/08/03 03:41:27;;;;;;;4.85;3.10;;;;;;;18.24;63.64;99927.03;4917675;29;20044;-87
2021/08/03 03:43:56;;;;;;;6.28;3.10;;;;;;;18.02;64.57;99936.81;4916895;29;20040;-86
2021/08/03 03:46:30;;;;;;;6.78;2.70;;;;;;;18.17;64.06;99942.59;4916581;29;20140;-85
2021/08/03 03:49:08;;;;;;;5.22;2.25;;;;;;;18.23;63.58;99949.97;4916999;29;20371;-85
2021/08/03 03:51:41;;;;;;;7.03;2.65;;;;;;;18.09;62.84;99955.59;4917973;29;20103;-84
2021/08/03 03:54:22;;;;;;;3.70;2.10;;;;;;;18.02;62.33;99962.34;4918264;29;20044;-84
2021/08/03 03:56:55;;;;;;;7.57;2.30;;;;;;;18.11;61.42;99961.59;4917889;29;20432;-84
2021/08/03 03:59:23;;;;;;;6.32;2.30;;;;;;;17.98;62.11;99967.06;4917068;29;20491;-84
2021/08/03 04:01:57;;;;;;;4.85;2.30;;;;;;;18.04;62.30;99971.78;4916254;29;20052;-84
2021/08/03 04:04:28;;;;;;;5.32;3.22;;;;;;;18.16;62.07;99969.91;4916863;29;20108;-84
2021/08/03 04:06:54;;;;;;;3.38;2.63;;;;;;;17.97;62.85;99972.47;4917401;29;20131;-85
2021/08/03 04:09:24;;;;;;;5.65;2.65;;;;;;;17.79;63.68;99970.44;4918386;29;20052;-86
2021/08/03 04:11:56;;;;;;;8.13;2.72;;;;;;;17.80;63.12;99977.38;4916328;29;20052;-85
2021/08/03 04:14:26;;;;;;;4.35;2.00;;;;;;;17.86;62.48;99981.28;4917959;29;20448;-86
2021/08/03 04:16:57;;;;;;;15.65;2.72;;;;;;;17.91;61.94;99978.25;4916290;29;20131;-86
2021/08/03 04:19:27;;;;;;;6.50;2.78;;;;;;;17.99;61.60;99970.53;4915152;29;20460;-86
2021/08/03 04:21:53;;;;;;;3.60;2.45;;;;;;;18.14;62.19;99969.22;4917479;29;20044;-86
2021/08/03 04:24:20;;;;;;;4.45;2.30;;;;;;;17.96;62.74;99970.81;4917200;29;20036;-85
2021/08/03 04:26:47;;;;;;;4.90;2.72;;;;;;;18.10;61.82;99966.97;4917398;29;20095;-85
2021/08/03 04:29:14;;;;;;;6.63;2.25;;;;;;;17.66;61.91;99967.09;4917661;29;20044;-86
2021/08/03 04:31:42;;;;;;;4.90;2.30;;;;;;;17.71;61.79;99972.81;4917756;29;20048;-86
2021/08/03 04:34:08;;;;;;;5.10;2.30;;;;;;;17.89;61.82;99980.19;4917085;29;20579;-86
2021/08/03 04:36:35;;;;;;;6.57;2.78;;;;;;;17.99;62.43;99975.78;4917359;29;20048;-86
2021/08/03 04:39:03;;;;;;;9.27;4.00;;;;;;;18.08;62.48;99975.03;4917503;29;20040;-85
2021/08/03 04:41:29;;;;;;;7.43;3.08;;;;;;;18.25;62.28;99976.22;4917942;29;20048;-86
2021/08/03 04:43:56;;;;;;;9.23;3.65;;;;;;;18.25;62.04;99976.22;4917008;29;20492;-92
2021/08/03 04:46:23;;;;;;;3.88;2.72;;;;;;;18.28;61.72;99976.78;4917405;29;20055;-86
2021/08/03 04:48:50;;;;;;;9.93;3.20;;;;;;;18.42;61.76;99978.22;4917065;29;20048;-86
2021/08/03 04:51:16;;;;;;;5.80;3.40;;;;;;;18.52;62.03;99972.97;4916512;29;20740;-92
2021/08/03 04:53:43;;;;;;;4.57;2.45;;;;;;;18.74;61.71;99967.50;4904947;29;20096;-86
2021/08/03 04:56:10;;;;;;;10.15;3.53;;;;;;;18.93;61.34;99965.88;4911826;29;20763;-86
2021/08/03 04:58:39;;;;;;;7.20;2.95;;;;;;;19.22;60.57;99971.19;4916262;29;20040;-87
2021/08/03 05:01:06;;;;;;;7.95;2.83;;;;;;;18.96;61.48;99958.53;4915377;29;20064;-86
2021/08/03 05:03:33;;;;;;;10.05;3.63;;;;;;;19.19;60.75;99964.38;4915854;29;20051;-86
2021/08/03 05:06:01;;;;;;;8.65;3.28;;;;;;;19.68;59.54;99965.19;4915453;29;20071;-85
2021/08/03 05:08:27;;;;;;;4.30;2.85;;;;;;;20.13;58.13;99953.94;4915752;29;20048;-89
2021/08/03 05:10:54;;;;;;;4.63;2.72;;;;;;;20.19;57.55;99953.38;4915929;29;20119;-88
2021/08/03 05:13:21;;;;;;;6.13;3.83;;;;;;;20.27;57.91;99953.47;4916237;29;20048;-87
2021/08/03 05:15:48;;;;;;;8.38;4.20;;;;;;;20.73;57.20;99949.09;4916021;29;20048;-87
2021/08/03 05:18:15;;;;;;;7.38;3.67;;;;;;;21.05;56.17;99947.75;4916239;29;20464;-87
2021/08/03 05:20:44;;;;;;;11.50;4.97;;;;;;;21.07;57.36;99953.72;4914775;29;20118;-87
2021/08/03 05:23:10;;;;;;;15.02;6.07;;;;;;;20.83;59.11;99952.50;4914496;29;20515;-87
2021/08/03 05:25:37;;;;;;;13.68;9.00;;;;;;;20.90;58.68;99956.22;4914387;29;20084;-91
2021/08/03 05:28:05;;;;;;;13.18;8.70;;;;;;;21.39;57.52;99955.88;4913578;29;20099;-89
2021/08/03 05:30:31;;;;;;;14.63;10.10;;;;;;;21.49;57.66;99958.44;4912665;29;20168;-91
2021/08/03 05:32:58;;;;;;;12.93;9.27;;;;;;;21.78;57.03;99956.31;4914084;29;20040;-92
2021/08/03 05:35:26;;;;;;;15.20;9.70;;;;;;;21.62;58.29;99966.81;4914451;29;20044;-90
2021/08/03 05:37:53;;;;;;;16.75;9.75;;;;;;;21.37;58.98;99966.63;4914710;29;20052;-89
2021/08/03 05:40:20;;;;;;;19.98;9.20;;;;;;;21.50;59.01;99968.88;4916228;29;20044;-87
2021/08/03 05:42:47;;;;;;;14.55;11.73;;;;;;;21.76;57.40;99968.91;4916303;29;20551;-88
2021/08/03 05:45:14;;;;;;;13.68;10.23;;;;;;;21.40;58.96;99970.78;4916123;29;20040;-88
2021/08/03 05:47:40;;;;;;;10.73;8.00;;;;;;;21.94;57.86;99977.66;4916360;29;20044;-89
2021/08/03 05:50:08;;;;;;;17.95;9.93;;;;;;;22.02;57.41;99979.53;4915967;29;20044;-89
2021/08/03 05:52:35;;;;;;;17.17;11.00;;;;;;;22.25;56.70;99977.19;4916275;29;20048;-89
2021/08/03 05:55:03;;;;;;;20.00;10.05;;;;;;;22.53;56.66;99974.31;4916418;29;20428;-92
2021/08/03 05:57:30;;;;;;;13.18;8.98;;;;;;;22.30;57.21;99971.41;4916686;29;20036;-92
2021/08/03 05:59:57;;;;;;;13.80;10.15;;;;;;;22.37;56.49;99983.91;4916454;29;20088;-93
2021/08/03 06:02:24;;;;;;;17.98;12.65;;;;;;;22.22;56.59;99985.50;4917324;29;20048;-95
2021/08/03 06:04:52;;;;;;;18.33;15.63;;;;;;;22.16;56.77;99989.59;4920257;29;20055;-96
2021/08/03 06:07:23;;;;;;;20.02;12.88;;;;;;;22.38;56.58;99990.06;4916215;29;20050;-92
2021/08/03 06:09:56;;;;;;;17.00;11.73;;;;;;;22.41;55.44;99995.03;4916339;29;20048;-93
2021/08/03 06:12:26;;;;;;;14.73;12.57;;;;;;;22.95;53.33;99999.06;4911788;29;20416;-93
2021/08/03 06:14:55;;;;;;;16.75;12.90;;;;;;;23.05;52.35;99990.13;4905988;29;20131;-92
2021/08/03 06:17:45;;;;;;;20.98;11.00;;;;;;;23.48;51.80;99995.16;4903168;29;20093;-90
2021/08/03 06:20:13;;;;;;;16.38;10.13;;;;;;;23.21;51.96;99996.28;4912200;29;20066;-94
2021/08/03 06:22:40;;;;;;;13.15;8.90;;;;;;;23.30;51.41;99994.50;4915995;29;20095;-93
2021/08/03 06:25:13;;;;;;;9.48;7.38;;;;;;;23.23;50.79;99990.84;4916090;29;20520;-95
2021/08/03 06:27:41;;;;;;;10.25;7.85;;;;;;;23.29;50.76;99995.50;4912243;29;20047;-92
2021/08/03 06:30:09;;;;;;;12.18;8.43;;;;;;;23.20;50.69;99996.47;4914626;29;20051;-92
2021/08/03 06:32:40;;;;;;;11.38;8.40;;;;;;;23.39;49.82;99982.03;4915812;29;20373;-94
2021/08/03 06:35:10;;;;;;;15.65;8.98;;;;;;;23.38;50.81;99983.84;4914379;29;20507;-93
2021/08/03 06:37:37;;;;;;;15.32;9.50;;;;;;;23.45;49.95;99984.84;4915631;29;20044;-93
2021/08/03 06:40:04;;;;;;;12.80;7.03;;;;;;;23.58;50.08;99978.19;4915839;29;20036;-92
2021/08/03 06:42:37;;;;;;;11.98;7.00;;;;;;;23.66;50.09;99980.91;4916058;29;20104;-93
2021/08/03 06:45:16;;;;;;;9.70;7.10;;;;;;;23.73;48.62;99979.22;4919089;29;20051;-92
2021/08/03 06:48:04;;;;;;;10.75;7.00;;;;;;;23.39;50.69;99980.22;4918813;29;20300;-85
2021/08/03 06:50:38;;;;;;;9.65;5.53;;;;;;;23.64;49.78;99981.03;4914339;29;20087;-80
2021/08/03 06:53:06;;;;;;;6.03;4.68;;;;;;;23.58;48.39;99975.53;4916085;29;20052;-80
2021/08/03 06:55:35;;;;;;;15.95;5.75;;;;;;;23.61;49.01;99981.38;4913078;29;20107;-82
2021/08/03 06:58:03;;;;;;;6.00;4.75;;;;;;;23.72;49.53;99990.88;4918870;29;20044;-81
2021/08/03 07:00:36;;;;;;;11.35;4.78;;;;;;;23.55;49.11;99986.53;4915218;29;20048;-78
2021/08/03 07:03:06;;;;;;;18.92;4.80;;;;;;;23.70;49.09;99983.06;4915844;29;20102;-78
2021/08/03 07:05:34;;;;;;;7.18;3.97;;;;;;;23.41;49.40;99988.00;4915518;29;20135;-77
2021/08/03 07:08:01;;;;;;;9.38;4.07;;;;;;;23.50;48.79;99990.50;4913347;29;20036;-83
2021/08/03 07:10:29;;;;;;;9.70;4.20;;;;;;;23.41;48.75;99991.50;4917707;29;20040;-85
2021/08/03 07:12:56;;;;;;;7.22;3.40;;;;;;;23.39;48.53;99980.22;4917271;29;20043;-82
2021/08/03 07:15:26;;;;;;;18.73;3.75;;;;;;;23.40;48.56;99987.19;4916821;29;20102;-81
2021/08/03 07:17:54;;;;;;;15.73;5.30;;;;;;;23.58;47.93;99984.34;4917417;29;20044;-81
2021/08/03 07:20:23;;;;;;;13.00;3.38;;;;;;;23.27;48.60;99987.66;4917908;29;20040;-84
2021/08/03 07:22:50;;;;;;;19.85;5.50;;;;;;;23.33;49.03;99985.34;4917645;29;20044;-84
2021/08/03 07:25:18;;;;;;;19.13;4.63;;;;;;;23.28;48.60;99983.19;4917841;29;20059;-83
2021/08/03 07:27:45;;;;;;;17.90;3.72;;;;;;;23.28;48.67;99977.88;4917047;29;20347;-82
2021/08/03 07:30:12;;;;;;;11.35;3.90;;;;;;;23.53;48.84;99982.19;4917477;29;20047;-83
2021/08/03 07:32:39;;;;;;;12.57;4.00;;;;;;;23.69;47.76;99969.91;4916182;29;20040;-84
2021/08/03 07:35:07;;;;;;;21.50;4.10;;;;;;;23.59;48.00;99974.53;4915372;29;20040;-85
2021/08/03 07:37:35;;;;;;;17.42;5.93;;;;;;;23.60;47.84;99973.56;4917267;29;20921;-86
2021/08/03 07:40:04;;;;;;;9.27;3.72;;;;;;;23.43;48.01;99970.88;4916794;29;20055;-86
2021/08/03 07:42:31;;;;;;;14.00;4.75;;;;;;;23.19;48.37;99974.38;4917199;29;20116;-84
2021/08/03 07:44:58;;;;;;;16.95;5.10;;;;;;;23.37;48.38;99976.03;4916916;29;20040;-88
2021/08/03 07:47:25;;;;;;;9.02;4.05;;;;;;;23.62;47.96;99976.88;4917365;29;20107;-84
2021/08/03 07:49:52;;;;;;;17.25;4.07;;;;;;;23.94;46.69;99979.53;4916185;29;20400;-84
2021/08/03 07:52:19;;;;;;;8.57;4.13;;;;;;;23.61;48.39;99975.22;4916593;29;20047;-84
2021/08/03 07:54:48;;;;;;;15.07;5.05;;;;;;;23.54;48.54;99972.38;4915288;29;20040;-82
2021/08/03 07:57:15;;;;;;;8.15;4.15;;;;;;;23.57;48.04;99965.91;4917179;29;20396;-86
2021/08/03 07:59:41;;;;;;;9.32;4.55;;;;;;;23.80;47.86;99977.53;4916476;29;20400;-85
2021/08/03 08:02:08;;;;;;;11.40;4.10;;;;;;;23.65;47.13;99979.22;4915669;29;20070;-81
2021/08/03 08:04:35;;;;;;;9.30;3.78;;;;;;;23.59;47.16;99974.53;4916244;29;20040;-84
2021/08/03 08:07:03;;;;;;;11.65;3.58;;;;;;;23.61;46.92;99983.19;4916379;29;20440;-84
2021/08/03 08:09:30;;;;;;;10.13;3.28;;;;;;;23.65;46.45;99989.84;4911812;29;20403;-83
2021/08/03 08:11:56;;;;;;;8.25;3.13;;;;;;;23.58;46.19;99987.00;4916333;29;20075;-84
2021/08/03 08:14:23;;;;;;;11.90;3.28;;;;;;;23.69;45.67;99984.03;4915790;29;20072;-83
2021/08/03 08:16:50;;;;;;;9.05;2.72;;;;;;;23.77;45.42;99983.22;4913993;29;20040;-83
2021/08/03 08:19:17;;;;;;;6.18;2.50;;;;;;;23.88;45.17;99985.53;4916505;29;20498;-82
2021/08/03 08:21:43;;;;;;;5.68;2.58;;;;;;;24.04;44.42;99984.66;4916032;29;20488;-84
2021/08/03 08:24:10;;;;;;;7.32;2.28;;;;;;;24.32;43.78;99979.75;4916794;29;20048;-82
2021/08/03 08:26:37;;;;;;;6.55;2.50;;;;;;;24.41;42.88;99970.75;4917162;29;20044;-83
2021/08/03 08:29:04;;;;;;;5.28;2.50;;;;;;;24.45;41.88;99972.09;4915019;29;20056;-83
2021/08/03 08:31:30;;;;;;;9.38;2.58;;;;;;;24.36;42.78;99975.78;4915558;29;20086;-84
2021/08/03 08:33:57;;;;;;;11.02;3.08;;;;;;;24.44;43.66;99967.75;4915148;29;20084;-84
2021/08/03 08:36:24;;;;;;;10.80;2.13;;;;;;;24.52;43.29;99972.22;4916736;29;20504;-84
2021/08/03 08:38:50;;;;;;;8.57;2.92;;;;;;;24.47;42.95;99964.75;4916868;29;20059;-84
2021/08/03 08:41:17;;;;;;;5.32;2.50;;;;;;;24.51;43.27;99970.56;4915897;29;20055;-84
2021/08/03 08:43:44;;;;;;;7.60;2.13;;;;;;;24.38;43.02;99963.09;4916371;29;20036;-84
2021/08/03 08:46:14;;;;;;;5.88;2.42;;;;;;;24.57;43.42;99969.88;4915629;29;20040;-82
2021/08/03 08:48:42;;;;;;;8.90;2.47;;;;;;;24.61;43.15;99967.66;4916107;29;20051;-84
2021/08/03 08:51:09;;;;;;;21.02;3.90;;;;;;;24.48;42.78;99966.41;4915342;29;20047;-84
2021/08/03 08:53:36;;;;;;;11.07;2.55;;;;;;;24.59;43.59;99961.69;4914696;29;20048;-83
2021/08/03 08:56:04;;;;;;;11.23;3.25;;;;;;;24.62;43.63;99956.84;4913486;29;20048;-82
2021/08/03 08:58:33;;;;;;;10.38;2.28;;;;;;;24.86;42.31;99955.88;4912270;29;20060;-83
2021/08/03 09:01:01;;;;;;;10.75;2.92;;;;;;;24.83;42.52;99954.41;4911520;29;20071;-85
2021/08/03 09:03:30;;;;;;;10.50;3.25;;;;;;;24.82;43.18;99959.88;4911711;29;20448;-83
2021/08/03 09:06:00;;;;;;;7.88;2.97;;;;;;;24.77;43.43;99954.28;4913520;29;20048;-82
2021/08/03 09:08:38;;;;;;;10.02;2.30;;;;;;;24.72;42.19;99951.31;4913365;29;20115;-82
2021/08/03 09:11:26;;;;;;;4.25;1.90;;;;;;;24.95;43.04;99951.31;4909902;29;20059;-82
2021/08/03 09:14:13;;;;;;;4.65;3.08;;;;;;;24.85;41.91;99951.56;4911730;29;20044;-83
2021/08/03 09:16:45;;;;;;;4.15;2.13;;;;;;;24.92;41.09;99943.66;4910035;29;20055;-81
2021/08/03 09:19:29;;;;;;;4.93;2.60;;;;;;;25.14;42.13;99934.03;4909192;29;20048;-84
2021/08/03 09:22:10;;;;;;;4.90;1.75;;;;;;;25.21;42.09;99935.00;4910070;29;20052;-83
2021/08/03 09:24:40;;;;;;;4.68;2.58;;;;;;;25.10;42.47;99932.75;4910283;29;20072;-85
2021/08/03 09:27:07;;;;;;;6.35;2.30;;;;;;;25.20;41.35;99928.84;4910149;29;20096;-84
2021/08/03 09:29:44;;;;;;;5.78;2.10;;;;;;;25.13;41.99;99927.06;4909711;29;20429;-83
2021/08/03 09:32:12;;;;;;;6.40;2.90;;;;;;;25.03;40.93;99920.09;4907732;29;20488;-84
2021/08/03 09:34:39;;;;;;;5.65;2.47;;;;;;;25.21;41.63;99924.34;4911402;29;20052;-87
2021/08/03 09:37:05;;;;;;;6.97;2.10;;;;;;;25.16;40.82;99916.88;4911671;29;20052;-83
2021/08/03 09:39:43;;;;;;;5.80;1.85;;;;;;;25.31;39.34;99914.25;4908309;29;20088;-81
2021/08/03 09:42:10;;;;;;;6.50;2.38;;;;;;;25.03;41.04;99913.94;4913672;29;20059;-83
2021/08/03 09:44:47;;;;;;;4.13;1.90;;;;;;;25.26;40.51;99911.28;4911508;29;20047;-82
2021/08/03 09:47:14;;;;;;;4.28;2.13;;;;;;;25.34;39.95;99908.53;4912133;29;20052;-83
2021/08/03 09:49:46;;;;;;;10.82;2.75;;;;;;;25.47;39.53;99914.09;4910824;29;20492;-81
2021/08/03 09:52:15;;;;;;;3.63;2.00;;;;;;;25.37;38.34;99916.19;4912604;29;20036;-81
2021/08/03 09:54:42;;;;;;;4.85;1.92;;;;;;;25.57;38.30;99914.69;4907268;29;20047;-82
2021/08/03 09:57:26;;;;;;;6.25;2.22;;;;;;;25.69;39.18;99915.06;4909369;29;20587;-84
2021/08/03 09:59:55;;;;;;;6.88;2.83;;;;;;;25.65;39.61;99912.94;4911439;29;20128;-84
2021/08/03 10:02:28;;;;;;;3.88;2.00;;;;;;;25.77;38.52;99898.16;4911713;29;20049;-85
2021/08/03 10:04:56;;;;;;;6.20;2.63;;;;;;;25.92;38.88;99898.97;4909847;29;20048;-86
2021/08/03 10:07:23;;;;;;;6.88;2.28;;;;;;;25.80;39.05;99895.94;4911242;29;20044;-86
2021/08/03 10:09:50;;;;;;;4.07;1.75;;;;;;;25.84;38.33;99889.22;4913092;29;20032;-86
2021/08/03 10:12:18;;;;;;;6.07;1.98;;;;;;;25.75;38.29;99882.31;4910262;29;20040;-84
2021/08/03 10:14:45;;;;;;;8.07;1.92;;;;;;;25.78;37.79;99878.44;4913371;29;20210;-80
2021/08/03 10:17:14;;;;;;;9.52;2.97;;;;;;;25.47;39.15;99868.75;4912012;29;20048;-84
2021/08/03 10:19:42;;;;;;;4.00;1.92;;;;;;;25.92;38.34;99864.25;4912839;29;20036;-78
2021/08/03 10:22:24;;;;;;;11.63;1.60;;;;;;;26.01;38.13;99873.03;4914658;29;20492;-84
2021/08/03 10:24:58;;;;;;;3.85;3.00;;;;;;;26.11;38.26;99869.03;4912667;29;20056;-83
2021/08/03 10:27:38;;;;;;;;;;;;;;;26.19;36.48;99868.09;4910869;29;20504;-84
2021/08/03 10:30:06;;;;;;;5.35;2.50;;;;;;;25.98;36.51;99855.50;4913655;29;19970;-86
2021/08/03 10:32:41;;;;;;;5.85;1.92;;;;;;;26.02;37.41;99854.13;4913663;29;20496;-88
2021/08/03 10:35:14;;;;;;;2.55;1.83;;;;;;;26.19;36.41;99853.91;4915758;29;20507;-85
2021/08/03 10:37:56;;;;;;;5.10;1.90;;;;;;;26.29;36.39;99843.75;4904971;29;20059;-84
2021/08/03 10:40:48;;;;;;;2.17;1.27;;;;;;;26.40;35.14;99840.59;4909707;29;20052;-84
2021/08/03 10:43:20;;;;;;;3.80;1.70;;;;;;;26.50;35.35;99833.13;4914834;29;20044;-86
2021/08/03 10:46:09;;;;;;;2.58;2.22;;;;;;;26.59;36.86;99831.19;4913450;29;20072;-85
2021/08/03 10:48:39;;;;;;;3.05;1.90;;;;;;;26.29;37.15;99827.72;4915907;29;20039;-86
2021/08/03 10:51:35;;;;;;;2.67;1.85;;;;;;;26.53;35.80;99823.94;4914166;29;20040;-85
2021/08/03 10:54:04;;;;;;;2.47;1.80;;;;;;;26.39;36.30;99822.91;4905160;29;20062;-86
2021/08/03 10:56:52;;;;;;;4.63;2.22;;;;;;;26.43;36.55;99818.06;4908451;29;20404;-87
2021/08/03 10:59:37;;;;;;;5.75;1.80;;;;;;;26.55;36.72;99812.00;4912502;29;20414;-89
2021/08/03 11:02:24;;;;;;;4.28;1.75;;;;;;;26.65;36.20;99819.72;4917300;29;20040;-88
2021/08/03 11:04:51;;;;;;;10.55;2.13;;;;;;;26.85;36.44;99822.59;4906326;29;20104;-85
2021/08/03 11:07:26;;;;;;;4.95;2.35;;;;;;;26.72;36.96;99815.25;4917803;29;20087;-84
2021/08/03 11:09:55;;;;;;;4.25;2.40;;;;;;;26.83;35.43;99816.56;4916134;29;20120;-90
2021/08/03 11:12:46;;;;;;;5.72;2.10;;;;;;;26.32;36.39;99816.69;4917693;29;20044;-86
2021/08/03 11:15:29;;;;;;;14.77;4.13;;;;;;;26.43;35.85;99812.72;4916140;29;20074;-86
2021/08/03 11:17:56;;;;;;;1.92;1.80;;;;;;;26.60;36.50;99809.59;4914074;29;20369;-81
2021/08/03 11:20:35;;;;;;;3.72;2.20;;;;;;;26.70;35.05;99797.75;4915683;29;20044;-80
2021/08/03 11:23:10;;;;;;;3.40;1.92;;;;;;;26.87;34.98;99799.97;4916947;29;20071;-83
2021/08/03 11:25:38;;;;;;;6.60;2.10;;;;;;;26.77;35.09;99796.78;4913100;29;20055;-85
2021/08/03 11:28:19;;;;;;;4.05;1.95;;;;;;;26.80;35.45;99795.59;4918510;29;20055;-82
2021/08/03 11:30:48;;;;;;;4.85;2.30;;;;;;;26.78;35.17;99802.97;4913517;29;20043;-80
2021/08/03 11:33:17;;;;;;;3.65;2.28;;;;;;;26.83;36.14;99798.69;4917396;29;20044;-82
2021/08/03 11:35:44;;;;;;;4.50;1.90;;;;;;;26.85;35.06;99793.16;4915669;29;20048;-85
2021/08/03 11:38:14;;;;;;;2.40;2.05;;;;;;;26.84;35.09;99788.81;4915483;29;20040;-87
2021/08/03 11:40:44;;;;;;;3.85;1.83;;;;;;;26.77;34.69;99783.41;4912874;29;20414;-90
2021/08/03 11:43:11;;;;;;;3.47;1.70;;;;;;;26.65;35.13;99779.63;4915822;29;20062;-85
2021/08/03 11:45:40;;;;;;;9.48;1.90;;;;;;;27.02;34.97;99791.03;4915080;29;20036;-83
2021/08/03 11:48:25;;;;;;;4.93;2.25;;;;;;;26.63;36.88;99782.50;4912270;29;20103;-83